Nerchinsk, Russia
Current Conditions -  °F | °C
As of 9:00 PM on Thursday 29 Jan 2015 (Local Time) from UIAA Reporting Station
Clear Clear  
Wind Chill: -13°   Ceiling: Unl
Heat Index:   Visibility: 6mi
Dew Point: -9°   Wind: 9mph
Humidity: 61%   Direction: 210°SSW
Pressure: 30.27"   Gusts: NA
Location:  52°N, 116.55°E
Report Text: UIAA 291200Z 21004MPS 9999 SKC M17/M23 Q1025 NOSIG RMK QFE71029CLRD70
Loading
Personal Weather Stations






























Interactive Weather Map New forecast layout! Learn more

10-Day Weather Forecast

Advertisements
Track Severe Weather on mobile